createdAt,value
2022-08-25T00:00:09.602Z,65.70
2022-08-25T00:02:36.368Z,66.20
2022-08-25T00:05:04.552Z,66.10
2022-08-25T00:07:31.378Z,65.90
2022-08-25T00:09:58.112Z,65.80
2022-08-25T00:12:26.135Z,65.70
2022-08-25T00:14:53.153Z,65.80
2022-08-25T00:17:19.856Z,65.40
2022-08-25T00:19:46.583Z,65.50
2022-08-25T00:22:13.398Z,65.20
2022-08-25T00:24:40.192Z,65.00
2022-08-25T00:27:07.011Z,64.70
2022-08-25T00:29:34.294Z,65.00
2022-08-25T00:32:01.432Z,64.80
2022-08-25T00:34:34.027Z,65.00
2022-08-25T00:37:03.607Z,64.80
2022-08-25T00:39:30.603Z,64.90
2022-08-25T00:41:58.249Z,65.10
2022-08-25T00:44:27.296Z,65.00
2022-08-25T00:46:56.648Z,65.50
2022-08-25T00:49:36.382Z,65.40
2022-08-25T00:52:09.709Z,65.70
2022-08-25T00:54:45.895Z,65.90
2022-08-25T00:57:16.028Z,66.60
2022-08-25T00:59:44.388Z,66.90
2022-08-25T01:02:13.729Z,67.20
2022-08-25T01:04:45.883Z,67.30
2022-08-25T01:07:20.462Z,67.50
2022-08-25T01:09:49.912Z,67.70
2022-08-25T01:12:16.752Z,68.00
2022-08-25T01:14:46.638Z,68.60
2022-08-25T01:17:14.691Z,68.60
2022-08-25T01:19:41.971Z,68.80
2022-08-25T01:22:10.610Z,69.10
2022-08-25T01:24:56.722Z,69.20
2022-08-25T01:27:23.703Z,69.80
2022-08-25T01:29:50.488Z,70.40
2022-08-25T01:32:17.230Z,70.40
2022-08-25T01:34:45.619Z,70.50
2022-08-25T01:37:15.747Z,70.20
2022-08-25T01:39:43.099Z,70.80
2022-08-25T01:42:18.529Z,70.90
2022-08-25T01:44:46.963Z,70.80
2022-08-25T01:47:14.499Z,71.20
2022-08-25T01:49:41.316Z,71.30
2022-08-25T01:52:15.263Z,71.80
2022-08-25T01:54:42.101Z,71.70
2022-08-25T01:57:09.451Z,72.00
2022-08-25T01:59:36.243Z,71.80
2022-08-25T02:02:04.860Z,71.80
2022-08-25T02:04:32.678Z,72.10
2022-08-25T02:07:02.422Z,72.60
2022-08-25T02:09:29.206Z,72.60
2022-08-25T02:11:56.807Z,72.30
2022-08-25T02:14:23.900Z,72.50
2022-08-25T02:16:52.912Z,72.50
2022-08-25T02:19:21.468Z,72.60
2022-08-25T02:21:48.571Z,72.70
2022-08-25T02:24:15.996Z,73.10
2022-08-25T02:26:43.302Z,73.20
2022-08-25T02:29:10.426Z,73.10
2022-08-25T02:31:37.854Z,73.30
2022-08-25T02:34:05.537Z,73.80
2022-08-25T02:36:32.552Z,73.50
2022-08-25T02:38:59.777Z,73.00
2022-08-25T02:41:30.912Z,72.90
2022-08-25T02:43:58.733Z,72.90
2022-08-25T02:46:25.664Z,73.40
2022-08-25T02:48:53.330Z,73.50
2022-08-25T02:51:22.720Z,73.70
2022-08-25T02:53:49.901Z,74.30
2022-08-25T02:56:18.353Z,75.00
2022-08-25T02:58:46.034Z,75.10
2022-08-25T03:01:14.368Z,75.80
2022-08-25T03:03:43.611Z,75.70
2022-08-25T03:06:12.694Z,76.40
2022-08-25T03:08:41.765Z,77.10
2022-08-25T03:11:09.197Z,77.60
2022-08-25T03:13:36.223Z,77.90
2022-08-25T03:16:05.561Z,77.90
2022-08-25T03:18:42.246Z,78.60
2022-08-25T03:21:11.475Z,78.70
2022-08-25T03:23:39.847Z,78.70
2022-08-25T03:26:25.218Z,79.00
2022-08-25T03:28:52.288Z,79.00
2022-08-25T03:31:19.163Z,79.00
2022-08-25T03:33:46.115Z,79.10
2022-08-25T03:36:12.873Z,79.00
2022-08-25T03:38:40.173Z,79.40
2022-08-25T03:41:18.943Z,79.60
2022-08-25T03:43:45.735Z,79.50
2022-08-25T03:46:24.305Z,78.90
2022-08-25T03:48:52.134Z,79.40
2022-08-25T03:51:56.964Z,79.50
2022-08-25T03:54:25.891Z,79.50
2022-08-25T03:56:52.733Z,79.20
2022-08-25T03:59:19.606Z,79.70
2022-08-25T04:01:51.392Z,79.90
2022-08-25T04:04:20.973Z,79.70
2022-08-25T04:06:47.708Z,79.90
2022-08-25T04:09:14.453Z,80.00
2022-08-25T04:11:42.614Z,79.90
2022-08-25T04:14:09.637Z,80.40
2022-08-25T04:16:40.896Z,80.80
2022-08-25T04:19:10.222Z,80.80
2022-08-25T04:21:39.166Z,81.20
2022-08-25T04:24:07.765Z,81.50
2022-08-25T04:26:38.123Z,82.20
2022-08-25T04:29:07.121Z,82.50
2022-08-25T04:31:34.230Z,82.50
2022-08-25T04:34:14.818Z,83.30
2022-08-25T04:36:57.799Z,84.50
2022-08-25T04:39:24.542Z,84.70
2022-08-25T04:41:51.535Z,84.40
2022-08-25T04:44:18.332Z,84.40
2022-08-25T04:46:45.103Z,84.20
2022-08-25T04:49:11.903Z,83.90
2022-08-25T04:51:41.265Z,84.60
2022-08-25T04:54:11.766Z,83.90
2022-08-25T04:56:40.781Z,83.90
2022-08-25T04:59:14.569Z,83.20
2022-08-25T05:01:42.725Z,82.50
2022-08-25T05:04:14.509Z,82.50
2022-08-25T05:06:54.898Z,82.40
2022-08-25T05:09:21.828Z,83.20
2022-08-25T05:11:48.839Z,83.00
2022-08-25T05:14:18.213Z,82.50
2022-08-25T05:16:45.513Z,82.50
2022-08-25T05:19:12.492Z,82.60
2022-08-25T05:21:39.235Z,82.00
2022-08-25T05:24:07.719Z,81.30
2022-08-25T05:26:35.192Z,82.30
2022-08-25T05:29:04.708Z,81.40
2022-08-25T05:31:32.930Z,82.00
2022-08-25T05:34:00.486Z,83.10
2022-08-25T05:36:29.420Z,83.70
2022-08-25T05:38:56.303Z,83.70
2022-08-25T05:41:29.466Z,83.60
2022-08-25T05:43:57.165Z,82.10
2022-08-25T05:46:24.542Z,83.40
2022-08-25T05:48:51.422Z,83.50
2022-08-25T05:51:19.836Z,83.70
2022-08-25T05:53:48.719Z,82.30
2022-08-25T05:56:16.322Z,82.30
2022-08-25T05:58:44.107Z,82.20
2022-08-25T06:01:38.762Z,80.60
2022-08-25T06:04:06.306Z,79.50
2022-08-25T06:06:33.302Z,76.80
2022-08-25T06:09:01.555Z,74.30
2022-08-25T06:11:28.305Z,73.20
2022-08-25T06:13:55.337Z,71.70
2022-08-25T06:16:22.144Z,70.40
2022-08-25T06:18:48.925Z,68.90
2022-08-25T06:21:16.958Z,69.40
2022-08-25T06:23:43.728Z,68.70
2022-08-25T06:26:19.524Z,67.80
2022-08-25T06:28:50.074Z,65.50
2022-08-25T06:31:17.232Z,63.00
2022-08-25T06:33:44.651Z,60.30
2022-08-25T06:36:11.499Z,59.60
2022-08-25T06:38:38.266Z,60.60
2022-08-25T06:41:06.519Z,60.00
2022-08-25T06:43:34.559Z,59.60
2022-08-25T06:46:13.046Z,58.80
2022-08-25T06:48:40.818Z,58.50
2022-08-25T06:51:10.216Z,57.60
2022-08-25T06:53:41.161Z,57.60
2022-08-25T06:56:08.514Z,57.60
2022-08-25T06:58:35.419Z,56.50
2022-08-25T07:01:26.726Z,55.00
2022-08-25T07:03:59.823Z,54.70
2022-08-25T07:06:28.463Z,53.40
2022-08-25T07:08:55.456Z,52.60
2022-08-25T07:11:22.362Z,52.00
2022-08-25T07:13:50.467Z,51.00
2022-08-25T07:16:20.287Z,49.20
2022-08-25T07:18:48.020Z,49.80
2022-08-25T07:21:15.744Z,47.60
2022-08-25T07:23:42.821Z,48.10
2022-08-25T07:29:03.143Z,45.80
2022-08-25T07:31:30.296Z,46.20
2022-08-25T07:34:16.397Z,45.60
2022-08-25T07:36:43.814Z,43.80
2022-08-25T07:39:11.043Z,44.00
2022-08-25T07:41:40.145Z,45.30
2022-08-25T07:44:08.237Z,43.70
2022-08-25T07:46:35.076Z,44.60
2022-08-25T07:49:02.081Z,43.70
2022-08-25T07:51:28.971Z,42.50
2022-08-25T07:53:55.827Z,43.10
2022-08-25T07:56:22.621Z,44.20
2022-08-25T07:58:49.834Z,44.80
2022-08-25T08:01:19.842Z,44.90
2022-08-25T08:03:50.822Z,44.90
2022-08-25T08:06:22.445Z,44.00
2022-08-25T08:08:54.781Z,43.50
2022-08-25T08:11:34.566Z,42.50
2022-08-25T08:14:02.055Z,43.70
2022-08-25T08:16:30.509Z,43.00
2022-08-25T08:18:58.855Z,42.40
2022-08-25T08:21:28.247Z,43.60
2022-08-25T08:23:58.892Z,43.20
2022-08-25T08:26:36.493Z,43.20
2022-08-25T08:29:14.660Z,42.10
2022-08-25T08:31:41.495Z,42.70
2022-08-25T08:34:16.069Z,42.70
2022-08-25T08:36:43.105Z,41.00
2022-08-25T08:39:12.839Z,40.80
2022-08-25T08:42:22.354Z,41.80
2022-08-25T08:45:17.002Z,41.90
2022-08-25T08:48:02.342Z,42.30
2022-08-25T08:50:32.965Z,42.50
2022-08-25T08:53:09.023Z,42.10
2022-08-25T08:56:01.375Z,41.40
2022-08-25T08:58:40.667Z,40.10
2022-08-25T09:01:11.717Z,38.30
2022-08-25T09:03:42.648Z,39.70
2022-08-25T09:06:13.731Z,38.00
2022-08-25T09:08:44.893Z,38.60
2022-08-25T09:11:22.269Z,38.30
2022-08-25T09:14:13.260Z,38.80
2022-08-25T09:16:57.852Z,37.90
2022-08-25T09:19:31.387Z,37.20
2022-08-25T09:22:33.586Z,37.40
2022-08-25T09:25:48.682Z,36.10
2022-08-25T09:28:33.077Z,35.70
2022-08-25T09:31:29.599Z,35.80
2022-08-25T09:34:00.679Z,35.30
2022-08-25T09:36:30.128Z,33.80
2022-08-25T09:38:58.099Z,35.60
2022-08-25T09:41:56.190Z,35.80
2022-08-25T09:44:33.780Z,34.80
2022-08-25T09:47:13.372Z,34.00
2022-08-25T09:49:44.000Z,34.30
2022-08-25T09:52:25.164Z,34.30
2022-08-25T09:54:53.968Z,33.00
2022-08-25T09:57:35.933Z,34.00
2022-08-25T10:00:36.755Z,34.90
2022-08-25T10:03:22.791Z,33.10
2022-08-25T10:06:05.872Z,32.20
2022-08-25T10:08:40.222Z,32.10
2022-08-25T10:11:15.179Z,32.00
2022-08-25T10:13:43.739Z,31.40
2022-08-25T10:16:25.190Z,31.40
2022-08-25T10:19:06.653Z,31.60
2022-08-25T10:21:35.543Z,30.00
2022-08-25T10:24:03.128Z,30.70
2022-08-25T10:27:01.389Z,31.80
2022-08-25T10:29:58.800Z,31.70
2022-08-25T10:32:36.771Z,31.10
2022-08-25T10:35:13.186Z,32.00
2022-08-25T10:38:07.580Z,33.00
2022-08-25T10:40:46.143Z,32.80
2022-08-25T10:43:23.748Z,32.40
2022-08-25T10:46:13.510Z,32.90
2022-08-25T10:48:52.678Z,34.00
2022-08-25T10:51:51.928Z,33.40
2022-08-25T10:54:21.822Z,33.60
2022-08-25T10:57:17.371Z,35.70
2022-08-25T10:59:59.437Z,36.10
2022-08-25T11:02:49.590Z,36.90
2022-08-25T11:05:40.490Z,35.10
2022-08-25T11:08:07.490Z,35.10
2022-08-25T11:11:02.476Z,35.40
2022-08-25T11:13:31.217Z,36.00
2022-08-25T11:16:23.239Z,37.00
2022-08-25T11:19:07.799Z,37.00
2022-08-25T11:21:53.561Z,37.50
2022-08-25T11:24:42.434Z,37.60
2022-08-25T11:27:21.618Z,36.20
2022-08-25T11:30:10.808Z,38.00
2022-08-25T11:32:39.107Z,38.20
2022-08-25T11:35:12.660Z,37.70
2022-08-25T11:38:06.491Z,38.20
2022-08-25T11:40:45.271Z,37.40
2022-08-25T11:43:53.992Z,37.80
2022-08-25T11:46:29.703Z,37.60
2022-08-25T11:49:19.944Z,35.80
2022-08-25T11:51:50.605Z,35.80
2022-08-25T11:54:24.803Z,36.00
2022-08-25T11:57:13.455Z,36.10
2022-08-25T11:59:52.407Z,35.30
2022-08-25T12:02:44.785Z,34.70
2022-08-25T12:05:46.937Z,34.50
2022-08-25T12:08:29.131Z,36.10
2022-08-25T12:11:10.654Z,34.60
2022-08-25T12:13:51.714Z,35.30
2022-08-25T12:16:35.140Z,34.70
2022-08-25T12:19:34.403Z,34.50
2022-08-25T12:22:04.340Z,32.60
2022-08-25T12:24:47.944Z,33.50
2022-08-25T12:27:40.970Z,30.00
2022-08-25T12:30:21.807Z,31.70
2022-08-25T12:33:27.734Z,33.20
2022-08-25T12:36:06.701Z,34.90
2022-08-25T12:38:44.085Z,35.70
2022-08-25T12:41:15.699Z,35.30
2022-08-25T12:43:45.757Z,34.70
2022-08-25T12:46:22.941Z,34.70
2022-08-25T12:49:03.751Z,34.40
2022-08-25T12:51:33.497Z,34.70
2022-08-25T12:54:19.067Z,34.10
2022-08-25T12:57:07.333Z,34.20
2022-08-25T12:59:53.030Z,34.30
2022-08-25T13:02:53.539Z,34.70
2022-08-25T13:06:05.780Z,32.90
2022-08-25T13:09:14.724Z,32.60
2022-08-25T13:11:49.645Z,33.10
2022-08-25T13:14:28.346Z,32.60
2022-08-25T13:16:58.490Z,31.60
2022-08-25T13:19:27.473Z,31.80
2022-08-25T13:22:13.872Z,31.90
2022-08-25T13:24:50.624Z,32.40
2022-08-25T13:27:37.409Z,32.60
2022-08-25T13:30:05.303Z,30.90
2022-08-25T13:32:38.289Z,31.00
2022-08-25T13:35:32.272Z,31.30
2022-08-25T13:38:16.985Z,31.40
2022-08-25T13:40:44.950Z,29.10
2022-08-25T13:43:14.166Z,29.70
2022-08-25T13:45:47.404Z,30.20
2022-08-25T13:48:39.986Z,30.80
2022-08-25T13:51:24.101Z,31.20
2022-08-25T13:54:02.734Z,31.00
2022-08-25T13:56:40.647Z,31.40
2022-08-25T13:59:23.624Z,31.10
2022-08-25T14:01:52.204Z,31.80
2022-08-25T14:04:50.487Z,31.70
2022-08-25T14:07:20.948Z,30.90
2022-08-25T14:09:51.753Z,29.90
2022-08-25T14:12:31.737Z,29.20
2022-08-25T14:15:04.581Z,29.30
2022-08-25T14:17:40.043Z,28.60
2022-08-25T14:20:24.962Z,28.70
2022-08-25T14:22:58.051Z,28.60
2022-08-25T14:25:27.170Z,29.70
2022-08-25T14:28:06.634Z,30.20
2022-08-25T14:30:36.883Z,30.00
2022-08-25T14:33:04.777Z,28.90
2022-08-25T14:35:34.507Z,28.50
2022-08-25T14:38:08.550Z,29.10
2022-08-25T14:40:36.341Z,29.50
2022-08-25T14:43:03.414Z,30.00
2022-08-25T14:45:32.057Z,29.00
2022-08-25T14:48:10.713Z,30.00
2022-08-25T14:50:38.163Z,30.10
2022-08-25T14:53:08.797Z,30.00
2022-08-25T14:55:36.136Z,30.00
2022-08-25T14:58:03.154Z,30.10
2022-08-25T15:00:37.418Z,30.40
2022-08-25T15:03:05.007Z,29.60
2022-08-25T15:05:32.381Z,30.00
2022-08-25T15:08:17.891Z,29.70
2022-08-25T15:10:44.693Z,29.40
2022-08-25T15:13:11.494Z,29.90
2022-08-25T15:15:52.728Z,29.40
2022-08-25T15:18:20.529Z,29.20
2022-08-25T15:20:50.090Z,29.20
2022-08-25T15:23:18.553Z,28.40
2022-08-25T15:25:47.816Z,28.90
2022-08-25T15:28:17.427Z,29.10
2022-08-25T15:30:45.955Z,28.60
2022-08-25T15:33:13.856Z,29.30
2022-08-25T15:35:41.119Z,29.30
2022-08-25T15:38:08.561Z,28.90
2022-08-25T15:40:38.980Z,28.90
2022-08-25T15:43:06.355Z,29.30
2022-08-25T15:45:36.408Z,29.40
2022-08-25T15:48:06.913Z,28.90
2022-08-25T15:50:38.694Z,28.50
2022-08-25T15:53:06.072Z,28.90
2022-08-25T15:55:40.379Z,28.70
2022-08-25T15:58:08.858Z,28.10
2022-08-25T16:00:36.375Z,27.80
2022-08-25T16:03:05.068Z,27.60
2022-08-25T16:05:38.793Z,28.20
2022-08-25T16:08:09.677Z,26.40
2022-08-25T16:10:46.352Z,26.70
2022-08-25T16:13:14.099Z,26.00
2022-08-25T16:15:41.095Z,29.20
2022-08-25T16:18:08.744Z,29.60
2022-08-25T16:20:36.832Z,29.70
2022-08-25T16:23:03.999Z,30.00
2022-08-25T16:25:31.543Z,30.00
2022-08-25T16:27:58.456Z,30.00
2022-08-25T16:30:26.050Z,30.70
2022-08-25T16:32:53.902Z,29.80
2022-08-25T16:35:21.128Z,29.90
2022-08-25T16:37:49.501Z,29.40
2022-08-25T16:40:18.878Z,29.50
2022-08-25T16:42:46.876Z,30.20
2022-08-25T16:45:13.788Z,30.90
2022-08-25T16:47:42.827Z,31.10
2022-08-25T16:50:10.936Z,31.20
2022-08-25T16:52:56.393Z,30.90
2022-08-25T16:55:26.214Z,30.70
2022-08-25T16:57:54.255Z,30.60
2022-08-25T17:00:25.465Z,30.60
2022-08-25T17:03:00.321Z,30.50
2022-08-25T17:05:29.168Z,31.30
2022-08-25T17:08:18.030Z,30.80
2022-08-25T17:10:44.846Z,30.50
2022-08-25T17:13:12.807Z,29.80
2022-08-25T17:15:43.348Z,29.90
2022-08-25T17:18:11.217Z,29.80
2022-08-25T17:20:40.339Z,30.00
2022-08-25T17:23:12.132Z,29.90
2022-08-25T17:25:43.151Z,29.80
2022-08-25T17:28:12.175Z,29.70
2022-08-25T17:30:40.265Z,29.60
2022-08-25T17:33:07.069Z,29.70
2022-08-25T17:35:42.783Z,30.00
2022-08-25T17:38:12.495Z,30.30
2022-08-25T17:40:40.457Z,29.90
2022-08-25T17:43:09.099Z,30.10
2022-08-25T17:45:37.276Z,30.00
2022-08-25T17:48:07.457Z,30.10
2022-08-25T17:50:36.570Z,30.50
2022-08-25T17:53:03.700Z,30.90
2022-08-25T17:55:31.710Z,31.60
2022-08-25T17:57:58.995Z,31.40
2022-08-25T18:00:25.822Z,32.00
2022-08-25T18:02:53.085Z,32.60
2022-08-25T18:05:22.238Z,32.60
2022-08-25T18:07:49.746Z,33.70
2022-08-25T18:10:17.469Z,34.10
2022-08-25T18:12:44.327Z,34.50
2022-08-25T18:15:12.620Z,34.80
2022-08-25T18:17:41.592Z,35.50
2022-08-25T18:20:11.211Z,36.10
2022-08-25T18:22:38.725Z,36.60
2022-08-25T18:25:07.711Z,37.10
2022-08-25T18:27:35.545Z,37.50
2022-08-25T18:30:04.290Z,38.10
2022-08-25T18:32:31.700Z,38.40
2022-08-25T18:34:58.600Z,38.80
2022-08-25T18:37:44.096Z,38.90
2022-08-25T18:40:24.156Z,39.40
2022-08-25T18:42:58.203Z,39.30
2022-08-25T18:45:28.825Z,39.50
2022-08-25T18:47:58.910Z,39.80
2022-08-25T18:50:32.322Z,40.20
2022-08-25T18:53:01.844Z,40.40
2022-08-25T18:55:29.039Z,41.20
2022-08-25T18:57:57.124Z,40.80
2022-08-25T19:00:27.100Z,41.00
2022-08-25T19:02:55.726Z,41.10
2022-08-25T19:05:31.717Z,41.50
2022-08-25T19:08:06.121Z,41.50
2022-08-25T19:10:33.936Z,42.50
2022-08-25T19:13:08.115Z,43.10
2022-08-25T19:15:36.192Z,42.00
2022-08-25T19:18:06.825Z,42.30
2022-08-25T19:20:36.892Z,42.90
2022-08-25T19:23:03.717Z,43.70
2022-08-25T19:25:36.142Z,43.60
2022-08-25T19:28:12.131Z,43.40
2022-08-25T19:30:49.757Z,43.90
2022-08-25T19:33:42.750Z,43.90
2022-08-25T19:36:08.581Z,44.30
2022-08-25T19:38:36.332Z,44.50
2022-08-25T19:41:14.227Z,45.20
2022-08-25T19:43:55.013Z,45.30
2022-08-25T19:46:23.584Z,45.80
2022-08-25T19:48:50.713Z,45.60
2022-08-25T19:51:19.215Z,45.70
2022-08-25T19:53:46.739Z,46.00
2022-08-25T19:56:21.118Z,46.30
2022-08-25T19:58:48.108Z,46.60
2022-08-25T20:01:18.090Z,47.00
2022-08-25T20:03:48.271Z,47.00
2022-08-25T20:06:16.220Z,47.30
2022-08-25T20:08:44.058Z,47.50
2022-08-25T20:11:11.042Z,48.10
2022-08-25T20:13:38.208Z,47.90
2022-08-25T20:16:05.570Z,48.40
2022-08-25T20:18:32.722Z,48.80
2022-08-25T20:21:01.967Z,48.50
2022-08-25T20:23:54.592Z,49.10
2022-08-25T20:26:21.592Z,48.60
2022-08-25T20:28:51.374Z,48.80
2022-08-25T20:31:18.487Z,48.70
2022-08-25T20:33:46.250Z,49.20
2022-08-25T20:36:16.993Z,49.90
2022-08-25T20:38:45.981Z,50.00
2022-08-25T20:41:13.473Z,49.80
2022-08-25T20:43:41.424Z,50.50
2022-08-25T20:46:09.419Z,50.70
2022-08-25T20:48:36.428Z,51.20
2022-08-25T20:51:07.900Z,50.30
2022-08-25T20:53:39.244Z,50.60
2022-08-25T20:56:10.280Z,51.10
2022-08-25T20:58:38.876Z,51.00
2022-08-25T21:01:20.378Z,51.50
2022-08-25T21:03:50.323Z,52.00
2022-08-25T21:06:17.212Z,52.00
2022-08-25T21:08:47.020Z,52.20
2022-08-25T21:11:17.936Z,52.40
2022-08-25T21:13:45.840Z,52.90
2022-08-25T21:16:12.664Z,52.90
2022-08-25T21:18:44.219Z,52.40
2022-08-25T21:21:16.656Z,52.80
2022-08-25T21:23:48.285Z,53.00
2022-08-25T21:26:16.447Z,53.40
2022-08-25T21:28:47.696Z,53.10
2022-08-25T21:31:16.266Z,53.50
2022-08-25T21:33:45.602Z,53.40
2022-08-25T21:36:15.195Z,53.40
2022-08-25T21:38:42.805Z,53.60
2022-08-25T21:41:14.497Z,53.60
2022-08-25T21:43:41.711Z,53.70
2022-08-25T21:46:14.736Z,54.20
2022-08-25T21:48:41.858Z,54.50
2022-08-25T21:51:10.857Z,54.90
2022-08-25T21:53:37.781Z,54.60
2022-08-25T21:56:06.077Z,55.20
2022-08-25T21:58:34.401Z,55.30
2022-08-25T22:01:15.896Z,55.70
2022-08-25T22:03:43.559Z,56.10
2022-08-25T22:06:14.997Z,56.10
2022-08-25T22:08:43.467Z,55.90
2022-08-25T22:11:10.643Z,55.50
2022-08-25T22:13:38.041Z,55.70
2022-08-25T22:16:08.074Z,56.10
2022-08-25T22:18:34.990Z,56.10
2022-08-25T22:21:07.244Z,56.00
2022-08-25T22:23:44.202Z,55.70
2022-08-25T22:26:15.483Z,55.80
2022-08-25T22:28:46.488Z,55.90
2022-08-25T22:31:14.836Z,56.40
2022-08-25T22:33:48.071Z,56.10
2022-08-25T22:36:20.985Z,56.40
2022-08-25T22:38:48.844Z,56.50
2022-08-25T22:41:21.403Z,56.60
2022-08-25T22:43:51.090Z,56.80
2022-08-25T22:46:20.073Z,56.90
2022-08-25T22:48:46.943Z,57.00
2022-08-25T22:51:20.634Z,57.30
2022-08-25T22:53:48.696Z,57.20
2022-08-25T22:56:18.158Z,57.30
2022-08-25T22:58:51.442Z,57.60
2022-08-25T23:01:20.312Z,58.10
2022-08-25T23:03:47.810Z,58.60
2022-08-25T23:06:24.811Z,58.70
2022-08-25T23:08:53.943Z,58.60
2022-08-25T23:11:21.943Z,58.60
2022-08-25T23:13:49.510Z,58.80
2022-08-25T23:16:17.291Z,58.90
2022-08-25T23:18:47.150Z,59.10
2022-08-25T23:21:37.878Z,59.10
2022-08-25T23:24:07.901Z,59.20
2022-08-25T23:26:34.956Z,59.30
2022-08-25T23:29:03.159Z,59.40
2022-08-25T23:31:45.132Z,59.90
2022-08-25T23:34:12.273Z,60.30
2022-08-25T23:36:40.057Z,60.90
2022-08-25T23:39:07.837Z,61.40
2022-08-25T23:41:36.893Z,61.50
2022-08-25T23:44:05.631Z,62.00
2022-08-25T23:46:35.037Z,62.60
2022-08-25T23:49:04.071Z,62.50
2022-08-25T23:51:33.692Z,62.90
2022-08-25T23:54:05.968Z,63.40
2022-08-25T23:56:36.500Z,63.80
2022-08-25T23:59:04.724Z,65.20
